Terminal Aerodrome Forecast
Issued by NWS Sioux Falls, SD

Home | Current Version | Previous Version | Text Only | Print | Product List | Glossary On
Versions: 1 2 3 4 5 6 7 8 9 10 11 12 13 14 15
157
FTUS43 KFSD 270520
TAFFSD
TAF
KFSD 270520Z 2706/2806 17007KT P6SM BKN200
     FM270900 VRB03KT P6SM OVC090
     FM271300 11006KT P6SM -SHRA OVC060
     FM271900 20006KT P6SM BKN040
     FM272300 02006KT P6SM BKN100
     FM280200 05006KT P6SM BKN140
     FM280300 05005KT P6SM SHRA VCTS BKN090CB=

USA.gov is the U.S. government's official web portal to all federal, state and local government web resources and services.